createdAt,value
2023-01-20T00:01:47.934Z,-1.30
2023-01-20T00:04:18.990Z,-1.30
2023-01-20T00:06:47.563Z,-1.30
2023-01-20T00:09:18.243Z,-1.30
2023-01-20T00:11:47.319Z,-1.30
2023-01-20T00:14:17.255Z,-1.40
2023-01-20T00:16:45.562Z,-1.40
2023-01-20T00:19:15.130Z,-1.50
2023-01-20T00:21:44.096Z,-1.40
2023-01-20T00:24:12.309Z,-1.40
2023-01-20T00:26:40.477Z,-1.40
2023-01-20T00:29:10.237Z,-1.40
2023-01-20T00:31:40.189Z,-1.30
2023-01-20T00:34:08.497Z,-1.20
2023-01-20T00:36:36.774Z,-1.10
2023-01-20T00:39:06.083Z,-1.20
2023-01-20T00:41:34.246Z,-1.20
2023-01-20T00:44:02.446Z,-1.20
2023-01-20T00:46:30.695Z,-1.20
2023-01-20T00:49:00.271Z,-1.10
2023-01-20T00:51:28.772Z,-1.20
2023-01-20T00:53:56.958Z,-1.20
2023-01-20T00:56:25.127Z,-1.20
2023-01-20T00:58:55.133Z,-1.20
2023-01-20T01:01:23.778Z,-1.20
2023-01-20T01:03:55.144Z,-1.20
2023-01-20T01:06:24.652Z,-1.20
2023-01-20T01:08:53.042Z,-0.70
2023-01-20T01:11:21.208Z,-0.70
2023-01-20T01:13:49.647Z,-0.90
2023-01-20T01:16:17.893Z,-1.00
2023-01-20T01:18:46.139Z,-0.90
2023-01-20T01:21:17.754Z,-1.00
2023-01-20T01:23:47.526Z,-1.00
2023-01-20T01:26:16.076Z,-0.90
2023-01-20T01:28:44.326Z,-0.70
2023-01-20T01:31:12.556Z,-0.30
2023-01-20T01:33:41.038Z,-0.20
2023-01-20T01:36:16.865Z,-0.30
2023-01-20T01:38:58.399Z,-0.30
2023-01-20T01:41:27.687Z,-0.30
2023-01-20T01:44:07.314Z,-0.40
2023-01-20T01:46:36.086Z,-0.30
2023-01-20T01:49:12.157Z,-0.20
2023-01-20T01:51:46.611Z,-0.20
2023-01-20T01:54:21.081Z,-0.10
2023-01-20T01:56:51.955Z,0.10
2023-01-20T01:59:21.066Z,0.10
2023-01-20T02:01:53.172Z,-0.20
2023-01-20T02:04:23.477Z,-0.40
2023-01-20T02:06:56.501Z,-0.40
2023-01-20T02:09:28.492Z,-0.40
2023-01-20T02:12:03.538Z,-0.40
2023-01-20T02:14:37.126Z,-0.40
2023-01-20T02:17:17.359Z,-0.40
2023-01-20T02:20:35.820Z,-0.40
2023-01-20T02:23:18.356Z,-0.40
2023-01-20T02:26:16.772Z,-0.30
2023-01-20T02:29:37.077Z,-0.20
2023-01-20T02:32:26.141Z,-0.10
2023-01-20T02:35:01.754Z,0.10
2023-01-20T02:37:38.052Z,0.10
2023-01-20T02:40:27.233Z,0.20
2023-01-20T02:43:09.872Z,0.30
2023-01-20T02:45:49.017Z,0.40
2023-01-20T02:48:27.498Z,0.40
2023-01-20T02:51:03.896Z,0.30
2023-01-20T02:53:42.496Z,0.10
2023-01-20T02:56:13.708Z,0.00
2023-01-20T02:58:49.975Z,-0.20
2023-01-20T03:01:26.109Z,-0.30
2023-01-20T03:04:01.786Z,-0.30
2023-01-20T03:06:37.580Z,-0.30
2023-01-20T03:09:12.171Z,-0.20
2023-01-20T03:11:48.932Z,-0.10
2023-01-20T03:14:18.411Z,-0.10
2023-01-20T03:16:48.193Z,-0.20
2023-01-20T03:19:20.583Z,-0.30
2023-01-20T03:21:49.914Z,-0.30
2023-01-20T03:24:18.104Z,-0.20
2023-01-20T03:26:46.453Z,-0.30
2023-01-20T03:29:15.904Z,-0.30
2023-01-20T03:31:49.189Z,-0.30
2023-01-20T03:34:23.758Z,-0.30
2023-01-20T03:36:55.186Z,-0.20
2023-01-20T03:39:25.698Z,-0.20
2023-01-20T03:42:09.078Z,-0.30
2023-01-20T03:45:01.559Z,-0.20
2023-01-20T03:47:49.909Z,-0.30
2023-01-20T03:50:36.332Z,-0.20
2023-01-20T03:53:19.191Z,-0.30
2023-01-20T03:55:53.237Z,-0.30
2023-01-20T03:58:28.830Z,-0.30
2023-01-20T04:00:58.747Z,-0.30
2023-01-20T04:03:32.575Z,-0.30
2023-01-20T04:06:05.844Z,-0.20
2023-01-20T04:08:38.501Z,0.00
2023-01-20T04:11:09.630Z,0.00
2023-01-20T04:13:37.965Z,-0.10
2023-01-20T04:16:14.616Z,0.00
2023-01-20T04:18:45.063Z,0.00
2023-01-20T04:21:22.886Z,0.00
2023-01-20T04:23:57.141Z,0.00
2023-01-20T04:26:25.327Z,0.10
2023-01-20T04:28:53.494Z,0.10
2023-01-20T04:31:30.601Z,0.10
2023-01-20T04:33:59.513Z,0.10
2023-01-20T04:36:29.175Z,0.10
2023-01-20T04:38:57.535Z,0.10
2023-01-20T04:41:25.770Z,0.10
2023-01-20T04:43:53.944Z,0.20
2023-01-20T04:46:22.212Z,0.20
2023-01-20T04:48:50.480Z,0.20
2023-01-20T04:51:18.659Z,0.20
2023-01-20T04:53:48.291Z,0.20
2023-01-20T04:56:17.108Z,0.30
2023-01-20T04:58:45.424Z,0.30
2023-01-20T05:01:13.768Z,0.30
2023-01-20T05:03:42.142Z,0.20
2023-01-20T05:06:11.635Z,0.20
2023-01-20T05:08:40.064Z,0.20
2023-01-20T05:11:09.627Z,0.20
2023-01-20T05:13:39.316Z,0.30
2023-01-20T05:16:08.709Z,0.30
2023-01-20T05:18:37.533Z,0.30
2023-01-20T05:21:08.645Z,0.30
2023-01-20T05:23:37.159Z,0.30
2023-01-20T05:26:05.558Z,0.30
2023-01-20T05:28:35.167Z,0.40
2023-01-20T05:31:03.588Z,0.40
2023-01-20T05:33:31.901Z,0.40
2023-01-20T05:36:00.120Z,0.30
2023-01-20T05:38:28.278Z,0.30
2023-01-20T05:41:01.476Z,0.30
2023-01-20T05:43:29.828Z,0.30
2023-01-20T05:45:59.689Z,0.20
2023-01-20T05:48:27.910Z,0.30
2023-01-20T05:50:56.144Z,0.50
2023-01-20T05:53:24.542Z,0.40
2023-01-20T05:56:01.757Z,0.30
2023-01-20T05:58:31.065Z,0.30
2023-01-20T06:01:07.771Z,0.30
2023-01-20T06:03:36.231Z,0.30
2023-01-20T06:06:07.995Z,0.30
2023-01-20T06:08:36.632Z,0.40
2023-01-20T06:11:04.772Z,0.40
2023-01-20T06:13:33.080Z,0.40
2023-01-20T06:16:01.238Z,0.30
2023-01-20T06:18:31.217Z,0.20
2023-01-20T06:20:59.898Z,0.20
2023-01-20T06:23:28.591Z,0.20
2023-01-20T06:26:01.702Z,0.20
2023-01-20T06:28:30.178Z,0.20
2023-01-20T06:31:03.600Z,0.20
2023-01-20T06:33:34.456Z,0.20
2023-01-20T06:36:04.165Z,0.20
2023-01-20T06:38:35.205Z,0.20
2023-01-20T06:41:05.985Z,0.20
2023-01-20T06:43:39.922Z,0.20
2023-01-20T06:46:12.251Z,0.20
2023-01-20T06:48:42.888Z,0.20
2023-01-20T06:51:14.263Z,0.20
2023-01-20T06:53:43.084Z,0.30
2023-01-20T06:56:13.264Z,0.10
2023-01-20T06:58:42.109Z,0.20
2023-01-20T07:01:14.144Z,0.20
2023-01-20T07:03:45.425Z,0.20
2023-01-20T07:06:18.278Z,0.30
2023-01-20T07:08:47.680Z,0.30
2023-01-20T07:11:16.022Z,0.30
2023-01-20T07:13:44.348Z,0.20
2023-01-20T07:16:15.495Z,0.20
2023-01-20T07:18:49.252Z,0.30
2023-01-20T07:21:18.205Z,0.20
2023-01-20T07:23:47.443Z,0.30
2023-01-20T07:26:19.227Z,0.30
2023-01-20T07:28:48.668Z,0.30
2023-01-20T07:31:20.614Z,0.30
2023-01-20T07:33:50.542Z,0.30
2023-01-20T07:36:19.703Z,0.40
2023-01-20T07:38:49.645Z,0.40
2023-01-20T07:41:20.222Z,0.40
2023-01-20T07:43:51.517Z,0.30
2023-01-20T07:46:20.904Z,0.30
2023-01-20T07:48:50.471Z,0.30
2023-01-20T07:51:19.018Z,0.40
2023-01-20T07:53:50.890Z,0.40
2023-01-20T07:56:21.596Z,0.40
2023-01-20T07:58:50.554Z,0.40
2023-01-20T08:01:22.970Z,0.50
2023-01-20T08:03:53.651Z,0.50
2023-01-20T08:06:24.328Z,0.40
2023-01-20T08:08:53.157Z,0.40
2023-01-20T08:11:23.236Z,0.40
2023-01-20T08:13:51.722Z,0.30
2023-01-20T08:16:20.791Z,0.30
2023-01-20T08:18:49.130Z,0.40
2023-01-20T08:21:22.888Z,0.40
2023-01-20T08:23:51.893Z,0.60
2023-01-20T08:26:20.612Z,0.60
2023-01-20T08:28:49.140Z,0.60
2023-01-20T08:31:21.692Z,0.60
2023-01-20T08:33:54.190Z,0.60
2023-01-20T08:36:27.180Z,0.70
2023-01-20T08:38:57.770Z,0.70
2023-01-20T08:41:30.052Z,0.60
2023-01-20T08:44:00.053Z,0.60
2023-01-20T08:46:29.047Z,0.80
2023-01-20T08:48:57.706Z,0.60
2023-01-20T08:51:31.767Z,0.60
2023-01-20T08:54:00.655Z,0.80
2023-01-20T08:56:29.583Z,0.70
2023-01-20T08:58:58.546Z,0.70
2023-01-20T09:01:31.091Z,0.60
2023-01-20T09:04:05.929Z,0.60
2023-01-20T09:06:43.065Z,0.60
2023-01-20T09:09:12.549Z,0.60
2023-01-20T09:11:44.528Z,0.60
2023-01-20T09:14:12.789Z,0.60
2023-01-20T09:16:41.020Z,0.80
2023-01-20T09:19:09.163Z,0.70
2023-01-20T09:21:37.322Z,0.90
2023-01-20T09:24:08.253Z,1.00
2023-01-20T09:26:41.509Z,1.00
2023-01-20T09:29:13.834Z,1.50
2023-01-20T09:31:46.006Z,1.00
2023-01-20T09:34:19.646Z,0.90
2023-01-20T09:36:52.550Z,0.90
2023-01-20T09:39:40.672Z,0.80
2023-01-20T09:42:57.208Z,0.80
2023-01-20T09:45:32.585Z,0.90
2023-01-20T09:48:28.080Z,1.10
2023-01-20T09:51:23.964Z,1.60
2023-01-20T09:54:03.084Z,1.20
2023-01-20T09:56:40.501Z,1.10
2023-01-20T09:59:16.753Z,1.00
2023-01-20T10:01:51.416Z,0.90
2023-01-20T10:04:32.865Z,0.90
2023-01-20T10:07:09.929Z,1.00
2023-01-20T10:09:47.302Z,0.90
2023-01-20T10:12:28.368Z,1.00
2023-01-20T10:15:06.720Z,1.10
2023-01-20T10:17:40.593Z,0.90
2023-01-20T10:20:17.683Z,0.90
2023-01-20T10:22:53.693Z,1.00
2023-01-20T10:25:28.073Z,0.90
2023-01-20T10:28:04.765Z,0.90
2023-01-20T10:30:38.171Z,0.90
2023-01-20T10:33:12.740Z,0.90
2023-01-20T10:35:47.804Z,1.00
2023-01-20T10:38:30.816Z,1.10
2023-01-20T10:41:09.074Z,1.00
2023-01-20T10:43:38.819Z,0.90
2023-01-20T10:46:28.105Z,1.00
2023-01-20T10:49:49.417Z,0.80
2023-01-20T10:52:44.185Z,0.90
2023-01-20T10:55:33.449Z,0.80
2023-01-20T10:58:15.300Z,0.90
2023-01-20T11:00:45.343Z,0.90
2023-01-20T11:03:18.876Z,1.00
2023-01-20T11:05:50.352Z,1.00
2023-01-20T11:08:22.292Z,1.00
2023-01-20T11:10:56.114Z,1.50
2023-01-20T11:13:24.413Z,1.40
2023-01-20T11:16:00.141Z,1.20
2023-01-20T11:18:31.149Z,1.00
2023-01-20T11:21:04.550Z,1.10
2023-01-20T11:23:41.825Z,1.00
2023-01-20T11:26:21.943Z,1.20
2023-01-20T11:28:54.936Z,1.10
2023-01-20T11:31:39.802Z,1.00
2023-01-20T11:34:25.379Z,1.00
2023-01-20T11:37:19.258Z,1.00
2023-01-20T11:40:05.593Z,1.10
2023-01-20T11:42:46.129Z,1.10
2023-01-20T11:45:32.524Z,1.10
2023-01-20T11:48:07.075Z,1.10
2023-01-20T11:50:39.167Z,1.00
2023-01-20T11:53:21.779Z,1.00
2023-01-20T11:55:54.128Z,1.00
2023-01-20T11:58:25.834Z,1.00
2023-01-20T12:01:02.672Z,1.00
2023-01-20T12:04:12.893Z,1.00
2023-01-20T12:06:56.885Z,1.00
2023-01-20T12:09:32.397Z,1.00
2023-01-20T12:12:07.439Z,1.00
2023-01-20T12:14:43.744Z,1.10
2023-01-20T12:17:34.785Z,1.00
2023-01-20T12:20:13.060Z,1.10
2023-01-20T12:22:53.969Z,1.10
2023-01-20T12:25:26.666Z,1.10
2023-01-20T12:27:58.773Z,1.00
2023-01-20T12:30:44.498Z,1.10
2023-01-20T12:33:25.182Z,1.00
2023-01-20T12:36:57.837Z,1.10
2023-01-20T12:39:43.523Z,1.10
2023-01-20T12:42:54.907Z,1.10
2023-01-20T12:45:46.414Z,1.30
2023-01-20T12:48:32.994Z,1.10
2023-01-20T12:51:26.766Z,1.00
2023-01-20T12:54:49.334Z,1.00
2023-01-20T12:57:38.942Z,1.00
2023-01-20T13:00:33.567Z,1.10
2023-01-20T13:04:04.082Z,1.10
2023-01-20T13:06:50.932Z,1.10
2023-01-20T13:09:40.695Z,1.00
2023-01-20T13:12:35.333Z,1.00
2023-01-20T13:15:19.515Z,1.10
2023-01-20T13:18:07.939Z,1.10
2023-01-20T13:20:40.527Z,1.20
2023-01-20T13:23:13.806Z,1.00
2023-01-20T13:25:46.791Z,1.00
2023-01-20T13:28:20.387Z,0.90
2023-01-20T13:30:51.529Z,1.00
2023-01-20T13:33:34.179Z,0.90
2023-01-20T13:36:15.737Z,0.90
2023-01-20T13:38:44.423Z,0.80
2023-01-20T13:41:48.245Z,0.80
2023-01-20T13:44:35.202Z,0.80
2023-01-20T13:47:04.740Z,0.80
2023-01-20T13:49:51.875Z,0.70
2023-01-20T13:53:13.928Z,0.60
2023-01-20T13:56:27.145Z,0.60
2023-01-20T13:58:58.009Z,0.60
2023-01-20T14:01:27.554Z,0.60
2023-01-20T14:04:06.588Z,0.60
2023-01-20T14:06:36.075Z,0.60
2023-01-20T14:09:07.872Z,0.60
2023-01-20T14:11:50.721Z,0.60
2023-01-20T14:14:21.622Z,0.50
2023-01-20T14:16:50.670Z,0.50
2023-01-20T14:19:27.437Z,0.50
2023-01-20T14:21:58.903Z,0.50
2023-01-20T14:24:29.911Z,0.40
2023-01-20T14:27:11.953Z,0.60
2023-01-20T14:29:40.956Z,0.60
2023-01-20T14:32:22.497Z,0.60
2023-01-20T14:34:52.234Z,0.40
2023-01-20T14:37:28.813Z,0.40
2023-01-20T14:40:00.368Z,0.40
2023-01-20T14:42:31.115Z,0.50
2023-01-20T14:44:59.558Z,0.50
2023-01-20T14:47:38.939Z,0.50
2023-01-20T14:50:13.205Z,0.40
2023-01-20T14:52:41.796Z,0.50
2023-01-20T14:55:32.025Z,0.40
2023-01-20T14:58:02.456Z,0.50
2023-01-20T15:00:33.985Z,0.40
2023-01-20T15:03:14.127Z,0.50
2023-01-20T15:05:54.342Z,0.50
2023-01-20T15:08:26.684Z,0.40
2023-01-20T15:11:24.613Z,0.40
2023-01-20T15:14:12.247Z,0.40
2023-01-20T15:16:51.893Z,0.30
2023-01-20T15:19:35.514Z,0.30
2023-01-20T15:22:24.700Z,0.30
2023-01-20T15:24:53.423Z,0.30
2023-01-20T15:27:33.393Z,0.30
2023-01-20T15:30:20.615Z,0.20
2023-01-20T15:32:50.727Z,0.20
2023-01-20T15:35:22.865Z,0.20
2023-01-20T15:37:51.769Z,0.20
2023-01-20T15:40:24.831Z,0.30
2023-01-20T15:42:54.857Z,0.20
2023-01-20T15:45:25.780Z,0.10
2023-01-20T15:47:53.937Z,0.10
2023-01-20T15:50:26.622Z,0.10
2023-01-20T15:52:54.966Z,0.10
2023-01-20T15:55:23.222Z,0.10
2023-01-20T15:57:53.243Z,0.10
2023-01-20T16:00:25.149Z,0.00
2023-01-20T16:02:53.337Z,0.10
2023-01-20T16:05:22.053Z,0.10
2023-01-20T16:07:50.393Z,0.10
2023-01-20T16:10:20.777Z,0.10
2023-01-20T16:12:49.630Z,0.00
2023-01-20T16:15:19.449Z,0.10
2023-01-20T16:17:51.178Z,0.00
2023-01-20T16:20:25.726Z,0.10
2023-01-20T16:22:54.408Z,0.10
2023-01-20T16:25:23.130Z,0.30
2023-01-20T16:27:51.412Z,0.10
2023-01-20T16:30:23.219Z,0.10
2023-01-20T16:32:53.569Z,0.20
2023-01-20T16:35:23.613Z,0.10
2023-01-20T16:37:52.734Z,0.00
2023-01-20T16:40:24.503Z,0.10
2023-01-20T16:42:56.489Z,0.10
2023-01-20T16:45:28.250Z,0.10
2023-01-20T16:47:58.190Z,0.00
2023-01-20T16:50:28.288Z,0.00
2023-01-20T16:52:56.592Z,0.10
2023-01-20T16:55:25.406Z,0.00
2023-01-20T16:57:54.086Z,0.10
2023-01-20T17:00:24.017Z,0.10
2023-01-20T17:02:53.203Z,0.10
2023-01-20T17:05:25.525Z,0.20
2023-01-20T17:07:57.170Z,0.20
2023-01-20T17:10:26.603Z,0.10
2023-01-20T17:12:55.887Z,0.10
2023-01-20T17:15:26.303Z,0.10
2023-01-20T17:17:58.129Z,0.10
2023-01-20T17:20:30.799Z,0.00
2023-01-20T17:22:59.015Z,-0.10
2023-01-20T17:25:27.196Z,-0.10
2023-01-20T17:27:55.388Z,-0.20
2023-01-20T17:30:26.187Z,0.00
2023-01-20T17:32:54.796Z,-0.10
2023-01-20T17:35:23.038Z,0.00
2023-01-20T17:37:52.618Z,-0.10
2023-01-20T17:40:20.949Z,-0.10
2023-01-20T17:42:49.157Z,-0.20
2023-01-20T17:45:17.835Z,-0.30
2023-01-20T17:47:46.040Z,-0.20
2023-01-20T17:50:14.604Z,-0.20
2023-01-20T17:52:42.966Z,-0.30
2023-01-20T17:55:12.762Z,-0.20
2023-01-20T17:57:40.899Z,-0.10
2023-01-20T18:00:11.941Z,-0.20
2023-01-20T18:02:40.307Z,0.00
2023-01-20T18:05:09.176Z,-0.20
2023-01-20T18:07:38.436Z,-0.20
2023-01-20T18:10:07.215Z,-0.20
2023-01-20T18:12:36.727Z,-0.30
2023-01-20T18:15:05.856Z,-0.30
2023-01-20T18:17:34.345Z,-0.20
2023-01-20T18:20:02.726Z,-0.20
2023-01-20T18:22:31.202Z,-0.30
2023-01-20T18:25:00.677Z,-0.30
2023-01-20T18:27:29.283Z,-0.30
2023-01-20T18:29:58.847Z,-0.40
2023-01-20T18:32:27.007Z,-0.50
2023-01-20T18:34:55.379Z,-0.60
2023-01-20T18:37:23.671Z,-0.50
2023-01-20T18:39:51.855Z,-0.40
2023-01-20T18:42:20.114Z,-0.50
2023-01-20T18:44:48.312Z,-0.40
2023-01-20T18:47:17.850Z,-0.40
2023-01-20T18:49:46.035Z,-0.40
2023-01-20T18:52:14.226Z,-0.40
2023-01-20T18:54:44.998Z,-0.40
2023-01-20T18:57:13.181Z,-0.50
2023-01-20T18:59:42.240Z,-0.50
2023-01-20T19:02:12.783Z,-0.50
2023-01-20T19:04:42.372Z,-0.40
2023-01-20T19:07:10.754Z,-0.50
2023-01-20T19:09:38.905Z,-0.50
2023-01-20T19:12:07.892Z,-0.50
2023-01-20T19:14:36.383Z,-0.40
2023-01-20T19:17:04.729Z,-0.40
2023-01-20T19:19:32.910Z,-0.30
2023-01-20T19:22:02.421Z,-0.40
2023-01-20T19:24:30.705Z,-0.30
2023-01-20T19:27:00.268Z,-0.30
2023-01-20T19:29:29.551Z,-0.40
2023-01-20T19:31:57.894Z,-0.30
2023-01-20T19:34:27.007Z,-0.40
2023-01-20T19:36:55.254Z,-0.40
2023-01-20T19:39:26.421Z,-0.30
2023-01-20T19:41:55.253Z,-0.50
2023-01-20T19:44:23.386Z,-0.40
2023-01-20T19:46:51.559Z,-0.30
2023-01-20T19:49:19.966Z,-0.50
2023-01-20T19:51:48.200Z,-0.50
2023-01-20T19:54:16.709Z,-0.40
2023-01-20T19:56:46.498Z,-0.50
2023-01-20T19:59:15.097Z,-0.50
2023-01-20T20:01:43.345Z,-0.50
2023-01-20T20:04:13.870Z,-0.50
2023-01-20T20:06:48.548Z,-0.50
2023-01-20T20:09:19.947Z,-0.60
2023-01-20T20:11:50.497Z,-0.60
2023-01-20T20:14:22.987Z,-0.50
2023-01-20T20:16:51.897Z,-0.40
2023-01-20T20:19:20.994Z,-0.50
2023-01-20T20:21:49.531Z,-0.50
2023-01-20T20:24:19.453Z,-0.60
2023-01-20T20:26:49.402Z,-0.70
2023-01-20T20:29:20.290Z,-0.70
2023-01-20T20:31:48.638Z,-0.60
2023-01-20T20:34:20.150Z,-0.60
2023-01-20T20:36:49.077Z,-0.60
2023-01-20T20:39:19.745Z,-0.60
2023-01-20T20:41:49.685Z,-0.60
2023-01-20T20:44:18.013Z,-0.60
2023-01-20T20:46:46.204Z,-0.60
2023-01-20T20:49:16.520Z,-0.60
2023-01-20T20:51:45.031Z,-0.50
2023-01-20T20:54:16.743Z,-0.40
2023-01-20T20:56:45.813Z,-0.50
2023-01-20T20:59:15.583Z,-0.50
2023-01-20T21:01:45.234Z,-0.30
2023-01-20T21:04:13.514Z,-0.40
2023-01-20T21:06:41.683Z,-0.50
2023-01-20T21:09:10.809Z,-0.60
2023-01-20T21:11:40.393Z,-0.50
2023-01-20T21:14:10.431Z,-0.50
2023-01-20T21:16:40.178Z,-0.60
2023-01-20T21:19:09.002Z,-0.50
2023-01-20T21:21:37.211Z,-0.40
2023-01-20T21:24:09.933Z,-0.30
2023-01-20T21:26:38.237Z,-0.30
2023-01-20T21:29:06.621Z,-0.40
2023-01-20T21:31:35.286Z,-0.40
2023-01-20T21:34:04.960Z,-0.40
2023-01-20T21:36:34.507Z,-0.40
2023-01-20T21:39:02.776Z,-0.50
2023-01-20T21:41:30.956Z,-0.60
2023-01-20T21:44:16.547Z,-0.60
2023-01-20T21:46:44.845Z,-0.50
2023-01-20T21:49:31.742Z,-0.60
2023-01-20T21:52:17.278Z,-0.60
2023-01-20T21:54:45.887Z,-0.60
2023-01-20T21:57:15.111Z,-0.50
2023-01-20T21:59:43.552Z,-0.60
2023-01-20T22:02:14.211Z,-0.60
2023-01-20T22:04:46.188Z,-0.60
2023-01-20T22:07:15.841Z,-0.60
2023-01-20T22:09:44.002Z,-0.60
2023-01-20T22:12:12.400Z,-0.50
2023-01-20T22:14:41.670Z,-0.40
2023-01-20T22:17:12.783Z,-0.40
2023-01-20T22:19:41.730Z,-0.30
2023-01-20T22:22:13.431Z,-0.40
2023-01-20T22:24:43.092Z,-0.40
2023-01-20T22:27:11.236Z,-0.40
2023-01-20T22:29:39.440Z,-0.40
2023-01-20T22:32:07.650Z,-0.30
2023-01-20T22:34:35.921Z,-0.40
2023-01-20T22:37:04.211Z,-0.40
2023-01-20T22:39:34.008Z,-0.40
2023-01-20T22:42:02.361Z,-0.50
2023-01-20T22:44:30.677Z,-0.50
2023-01-20T22:46:59.005Z,-0.50
2023-01-20T22:49:28.383Z,-0.40
2023-01-20T22:51:56.600Z,-0.40
2023-01-20T22:54:24.739Z,-0.40
2023-01-20T22:56:54.267Z,-0.50
2023-01-20T22:59:22.376Z,-0.50
2023-01-20T23:01:50.592Z,-0.60
2023-01-20T23:04:18.849Z,-0.50
2023-01-20T23:06:47.123Z,-0.40
2023-01-20T23:09:15.494Z,-0.40
2023-01-20T23:11:44.104Z,-0.50
2023-01-20T23:14:13.895Z,-0.40
2023-01-20T23:16:43.281Z,-0.40
2023-01-20T23:19:12.572Z,-0.40
2023-01-20T23:21:40.777Z,-0.40
2023-01-20T23:24:09.528Z,-0.40
2023-01-20T23:26:37.879Z,-0.50
2023-01-20T23:29:06.044Z,-0.40
2023-01-20T23:31:35.905Z,-0.40
2023-01-20T23:34:04.320Z,-0.50
2023-01-20T23:36:32.626Z,-0.50
2023-01-20T23:39:00.983Z,-0.30
2023-01-20T23:41:29.292Z,-0.30
2023-01-20T23:43:57.533Z,-0.30
2023-01-20T23:46:25.654Z,-0.40
2023-01-20T23:48:55.216Z,-0.50
2023-01-20T23:51:23.472Z,-0.50
2023-01-20T23:53:51.709Z,-0.40
2023-01-20T23:56:23.622Z,-0.50
2023-01-20T23:58:52.847Z,-0.30
